Aérodrome :
LOGIN :

S'inscrire | Disclaimer

   EN    FR    IT 

 










Légende :    VFR   VFR Marginal   IFR   IFR Intensif   IFR Très Intensif
Visi : 
Plafond : 
>= 8 km
>= 3000ft
5 à 8 km
1000 à 3000 ft
1500m à 5 km
500 à 1000 ft
800 à 1500m
200 à 500 ft
< 800m
< 200 ft
Symboles :   Orages  Brouillard  Fortes neiges  Fortes précipitations  Vent > 20 kt
SIGMETs :   Divers  Orages  Givrage  Turbulence  Onde Orograph.  Cendres Volcan.







- Altitude de l'aérodrome : 1400 ft


LSME - Luzern Emmen

DERNIER METAR :
  • 211820Z AUTO 25003KT 210V360 8000NDV -RA FEW005 BKN044 BKN053 12/11 Q1017 RMK

METARs EXPIRÉS :
  • 211750Z AUTO VRB02KT 4300NDV -RA BKN038 BKN044 BKN050 12/11 Q1016 RMK
  • 211720Z AUTO 17003KT 140V210 6000NDV -RA FEW030 BKN038 OVC048 12/11 Q1016 RMK
  • 211620Z AUTO VRB01KT 8000NDV -RA FEW036 BKN042 OVC049 13/11 Q1016 RERA RMK
  • 211550Z AUTO 00000KT 7000NDV RA FEW031 OVC041 13/11 Q1016 RMK

Prévision TAF périmée.
Pas de NOTAMs connus pour ce terrain.



MET'MAP, la Météo Aéronautique d'un coup d'oeil ! - Copyright ORBIFLY Décembre 2007 - Disclaimer

ORBIFLY MET'MAP TEAM :

Programmation & Développement : Alexandra Zaïnal
Conception & Développement : Baudouin d'Aumeries
Co-Programmation & Développement : Marc-Olivier Méhu
Soutien technique & logistique : Manuel Goepfert

Contact : metmap@orbifly.com




SOURCES & CREDITS :

   NOAA